createdAt,value
2017-10-02T00:00:40.327Z,97.08
2017-10-02T00:01:40.448Z,97.13
2017-10-02T00:02:40.354Z,97.18
2017-10-02T00:03:40.461Z,97.28
2017-10-02T00:04:40.371Z,97.18
2017-10-02T00:05:40.475Z,97.18
2017-10-02T00:06:40.395Z,97.23
2017-10-02T00:07:40.489Z,96.70
2017-10-02T00:08:40.417Z,96.89
2017-10-02T00:09:40.502Z,96.80
2017-10-02T00:10:40.440Z,96.99
2017-10-02T00:11:40.516Z,96.89
2017-10-02T00:12:40.456Z,96.89
2017-10-02T00:13:40.467Z,96.89
2017-10-02T00:14:40.538Z,96.99
2017-10-02T00:15:40.490Z,96.99
2017-10-02T00:16:40.550Z,96.89
2017-10-02T00:17:40.514Z,97.18
2017-10-02T00:18:40.572Z,97.18
2017-10-02T00:19:40.534Z,97.08
2017-10-02T00:20:40.542Z,97.37
2017-10-02T00:21:40.583Z,97.08
2017-10-02T00:22:40.563Z,97.18
2017-10-02T00:23:40.595Z,96.99
2017-10-02T00:24:40.582Z,97.28
2017-10-02T00:25:40.612Z,97.18
2017-10-02T00:26:40.606Z,96.99
2017-10-02T00:27:40.728Z,97.04
2017-10-02T00:28:40.626Z,96.94
2017-10-02T00:29:40.740Z,96.84
2017-10-02T00:30:40.650Z,97.23
2017-10-02T00:31:40.656Z,97.61
2017-10-02T00:32:40.760Z,97.04
2017-10-02T00:33:40.679Z,97.04
2017-10-02T00:34:40.776Z,97.42
2017-10-02T00:35:40.704Z,96.89
2017-10-02T00:36:40.788Z,97.23
2017-10-02T00:37:40.721Z,97.13
2017-10-02T00:38:40.805Z,97.13
2017-10-02T00:39:40.757Z,97.13
2017-10-02T00:40:40.814Z,97.18
2017-10-02T00:41:40.763Z,97.33
2017-10-02T00:42:40.830Z,97.13
2017-10-02T00:43:40.785Z,97.04
2017-10-02T00:44:40.841Z,97.13
2017-10-02T00:45:40.806Z,97.13
2017-10-02T00:46:40.817Z,97.33
2017-10-02T00:47:40.827Z,97.23
2017-10-02T00:48:40.867Z,97.13
2017-10-02T00:49:40.849Z,96.56
2017-10-02T00:50:40.879Z,96.18
2017-10-02T00:51:40.871Z,96.66
2017-10-02T00:52:40.893Z,96.56
2017-10-02T00:53:40.889Z,97.04
2017-10-02T00:54:41.013Z,96.66
2017-10-02T00:55:40.914Z,96.66
2017-10-02T00:56:41.024Z,96.37
2017-10-02T00:57:40.933Z,96.75
2017-10-02T00:58:41.039Z,96.47
2017-10-02T00:59:40.956Z,96.75
2017-10-02T01:00:40.963Z,96.08
2017-10-02T01:01:41.061Z,96.47
2017-10-02T01:02:40.987Z,96.47
2017-10-02T01:03:41.073Z,96.47
2017-10-02T01:04:41.009Z,96.47
2017-10-02T01:05:41.085Z,96.75
2017-10-02T01:06:41.025Z,96.66
2017-10-02T01:07:41.100Z,96.66
2017-10-02T01:08:41.055Z,96.66
2017-10-02T01:09:41.114Z,96.56
2017-10-02T01:10:41.067Z,96.56
2017-10-02T01:11:41.128Z,96.47
2017-10-02T01:12:41.090Z,96.37
2017-10-02T01:13:41.141Z,96.56
2017-10-02T01:14:41.112Z,96.56
2017-10-02T01:15:41.155Z,96.75
2017-10-02T01:16:41.136Z,96.56
2017-10-02T01:17:41.176Z,96.56
2017-10-02T01:18:41.154Z,96.47
2017-10-02T01:19:41.182Z,96.27
2017-10-02T01:20:41.172Z,96.27
2017-10-02T01:21:41.303Z,96.47
2017-10-02T01:22:41.193Z,96.56
2017-10-02T01:23:41.316Z,96.27
2017-10-02T01:24:41.223Z,96.56
2017-10-02T01:25:41.330Z,96.56
2017-10-02T01:26:41.241Z,96.56
2017-10-02T01:27:41.344Z,96.66
2017-10-02T01:28:41.259Z,96.56
2017-10-02T01:29:41.270Z,96.75
2017-10-02T01:30:41.364Z,96.84
2017-10-02T01:31:41.290Z,96.47
2017-10-02T01:32:41.376Z,96.94
2017-10-02T01:33:41.308Z,96.66
2017-10-02T01:34:41.397Z,96.66
2017-10-02T01:35:41.330Z,96.75
2017-10-02T01:36:41.414Z,96.56
2017-10-02T01:37:41.352Z,96.66
2017-10-02T01:38:41.414Z,96.75
2017-10-02T01:39:41.376Z,96.84
2017-10-02T01:40:41.431Z,96.94
2017-10-02T01:41:41.396Z,96.66
2017-10-02T01:42:41.441Z,97.13
2017-10-02T01:43:41.419Z,96.75
2017-10-02T01:44:41.457Z,97.13
2017-10-02T01:45:41.435Z,97.80
2017-10-02T01:46:41.481Z,97.90
2017-10-02T01:47:41.460Z,97.99
2017-10-02T01:48:41.479Z,97.80
2017-10-02T01:49:41.479Z,97.71
2017-10-02T01:50:41.600Z,97.71
2017-10-02T01:51:41.497Z,98.38
2017-10-02T01:52:41.613Z,98.57
2017-10-02T01:53:41.519Z,97.99
2017-10-02T01:54:41.627Z,98.28
2017-10-02T01:55:41.540Z,98.28
2017-10-02T01:56:41.640Z,98.66
2017-10-02T01:57:41.563Z,98.75
2017-10-02T01:58:41.570Z,98.99
2017-10-02T01:59:41.660Z,98.75
2017-10-02T02:00:41.592Z,98.61
2017-10-02T02:01:41.674Z,98.61
2017-10-02T02:02:41.613Z,98.71
2017-10-02T02:03:41.686Z,99.43
2017-10-02T02:04:41.635Z,99.19
2017-10-02T02:05:41.699Z,99.85
2017-10-02T02:06:41.656Z,99.57
2017-10-02T02:07:41.713Z,99.85
2017-10-02T02:08:41.676Z,99.99
2017-10-02T02:09:41.726Z,99.99
2017-10-02T02:10:41.697Z,99.99
2017-10-02T02:11:41.741Z,99.99
2017-10-02T02:12:41.719Z,99.99
2017-10-02T02:13:41.729Z,99.99
2017-10-02T02:14:41.796Z,99.99
2017-10-02T02:15:41.756Z,99.99
2017-10-02T02:16:42.798Z,99.99
2017-10-02T02:17:41.768Z,99.99
2017-10-02T02:18:41.890Z,99.99
2017-10-02T02:19:41.792Z,99.99
2017-10-02T02:20:41.802Z,99.99
2017-10-02T02:21:41.911Z,99.99
2017-10-02T02:22:41.820Z,99.99
2017-10-02T02:23:41.923Z,99.99
2017-10-02T02:24:41.843Z,99.99
2017-10-02T02:25:41.939Z,99.99
2017-10-02T02:26:41.865Z,99.99
2017-10-02T02:27:41.951Z,99.99
2017-10-02T02:28:41.884Z,99.99
2017-10-02T02:29:41.962Z,99.99
2017-10-02T02:30:41.906Z,99.99
2017-10-02T02:31:41.978Z,99.99
2017-10-02T02:32:41.928Z,99.99
2017-10-02T02:33:41.991Z,99.99
2017-10-02T02:34:41.946Z,99.99
2017-10-02T02:35:41.956Z,99.99
2017-10-02T02:36:42.015Z,99.99
2017-10-02T02:37:41.977Z,99.99
2017-10-02T02:38:42.026Z,99.99
2017-10-02T02:39:42.000Z,99.99
2017-10-02T02:40:42.039Z,99.99
2017-10-02T02:41:42.016Z,99.99
2017-10-02T02:42:42.050Z,99.99
2017-10-02T02:43:42.042Z,99.99
2017-10-02T02:44:43.089Z,99.99
2017-10-02T02:45:42.058Z,99.99
2017-10-02T02:46:42.180Z,99.99
2017-10-02T02:47:42.090Z,99.99
2017-10-02T02:48:42.196Z,99.99
2017-10-02T02:49:42.104Z,99.99
2017-10-02T02:50:42.110Z,99.99
2017-10-02T02:51:42.217Z,99.99
2017-10-02T02:52:42.176Z,99.99
2017-10-02T02:53:42.230Z,99.99
2017-10-02T02:54:42.157Z,99.99
2017-10-02T02:55:42.241Z,99.99
2017-10-02T02:56:42.174Z,99.99
2017-10-02T02:57:42.185Z,99.99
2017-10-02T02:58:42.264Z,99.99
2017-10-02T02:59:42.209Z,99.99
2017-10-02T03:00:42.274Z,99.99
2017-10-02T03:01:42.225Z,99.99
2017-10-02T03:02:43.313Z,99.99
2017-10-02T03:03:42.245Z,99.99
2017-10-02T03:04:42.305Z,99.99
2017-10-02T03:05:42.268Z,99.99
2017-10-02T03:06:42.318Z,99.99
2017-10-02T03:07:42.287Z,99.99
2017-10-02T03:08:42.320Z,99.99
2017-10-02T03:09:42.310Z,99.99
2017-10-02T03:10:42.346Z,99.99
2017-10-02T03:11:42.326Z,99.99
2017-10-02T03:12:42.360Z,99.99
2017-10-02T03:13:42.345Z,99.99
2017-10-02T03:14:42.374Z,99.99
2017-10-02T03:15:42.368Z,99.99
2017-10-02T03:16:42.487Z,99.99
2017-10-02T03:17:42.390Z,99.99
2017-10-02T03:18:42.502Z,99.99
2017-10-02T03:19:42.411Z,99.99
2017-10-02T03:20:42.516Z,99.99
2017-10-02T03:21:42.429Z,99.99
2017-10-02T03:22:42.528Z,99.99
2017-10-02T03:23:42.452Z,99.99
2017-10-02T03:24:42.461Z,99.99
2017-10-02T03:25:42.552Z,99.99
2017-10-02T03:26:42.483Z,99.99
2017-10-02T03:27:42.566Z,99.99
2017-10-02T03:28:42.500Z,99.99
2017-10-02T03:29:42.511Z,99.99
2017-10-02T03:30:42.676Z,99.99
2017-10-02T03:31:42.536Z,99.99
2017-10-02T03:32:42.690Z,99.99
2017-10-02T03:33:42.551Z,99.99
2017-10-02T03:34:42.702Z,99.99
2017-10-02T03:35:42.577Z,99.99
2017-10-02T03:36:42.715Z,99.99
2017-10-02T03:37:42.589Z,99.99
2017-10-02T03:38:42.728Z,99.99
2017-10-02T03:39:42.611Z,99.99
2017-10-02T03:40:42.742Z,99.99
2017-10-02T03:41:42.634Z,99.99
2017-10-02T03:42:42.760Z,99.99
2017-10-02T03:43:42.652Z,99.99
2017-10-02T03:44:42.873Z,99.99
2017-10-02T03:45:42.673Z,99.99
2017-10-02T03:46:42.888Z,99.99
2017-10-02T03:47:42.698Z,99.99
2017-10-02T03:48:42.897Z,99.99
2017-10-02T03:49:42.716Z,99.99
2017-10-02T03:50:42.915Z,99.99
2017-10-02T03:51:42.736Z,99.99
2017-10-02T03:52:42.746Z,99.99
2017-10-02T03:53:42.755Z,99.99
2017-10-02T03:54:42.769Z,99.99
2017-10-02T03:55:42.951Z,99.99
2017-10-02T03:56:42.786Z,99.99
2017-10-02T03:57:42.964Z,99.99
2017-10-02T03:58:42.810Z,99.99
2017-10-02T03:59:42.977Z,99.99
2017-10-02T04:00:42.826Z,99.99
2017-10-02T04:01:42.991Z,99.99
2017-10-02T04:02:42.852Z,99.99
2017-10-02T04:03:43.003Z,99.99
2017-10-02T04:04:42.870Z,99.99
2017-10-02T04:05:43.018Z,99.99
2017-10-02T04:06:42.891Z,99.99
2017-10-02T04:07:43.063Z,99.99
2017-10-02T04:08:42.910Z,99.99
2017-10-02T04:09:43.044Z,99.99
2017-10-02T04:10:42.929Z,99.99
2017-10-02T04:11:43.057Z,99.99
2017-10-02T04:12:42.953Z,99.99
2017-10-02T04:13:42.957Z,99.99
2017-10-02T04:14:42.972Z,99.99
2017-10-02T04:15:43.187Z,99.99
2017-10-02T04:16:42.991Z,99.99
2017-10-02T04:17:43.200Z,99.99
2017-10-02T04:18:43.008Z,99.99
2017-10-02T04:19:44.237Z,99.99
2017-10-02T04:20:43.029Z,99.99
2017-10-02T04:21:43.226Z,99.99
2017-10-02T04:22:43.052Z,99.99
2017-10-02T04:23:43.239Z,99.99
2017-10-02T04:24:43.075Z,99.99
2017-10-02T04:25:43.254Z,99.99
2017-10-02T04:26:43.092Z,99.99
2017-10-02T04:27:43.100Z,99.99
2017-10-02T04:28:43.111Z,99.99
2017-10-02T04:29:43.281Z,99.99
2017-10-02T04:30:43.129Z,99.99
2017-10-02T04:31:43.295Z,99.99
2017-10-02T04:32:43.155Z,99.99
2017-10-02T04:33:43.310Z,99.99
2017-10-02T04:34:43.173Z,99.99
2017-10-02T04:35:43.324Z,99.99
2017-10-02T04:36:43.192Z,99.99
2017-10-02T04:37:43.338Z,99.99
2017-10-02T04:38:43.209Z,99.99
2017-10-02T04:39:43.235Z,99.99
2017-10-02T04:40:43.236Z,99.99
2017-10-02T04:41:43.350Z,99.99
2017-10-02T04:42:43.253Z,99.99
2017-10-02T04:43:43.262Z,99.99
2017-10-02T04:44:43.271Z,99.99
2017-10-02T04:45:43.390Z,99.99
2017-10-02T04:46:43.291Z,99.99
2017-10-02T04:47:43.391Z,99.99
2017-10-02T04:48:43.316Z,99.99
2017-10-02T04:49:43.417Z,99.99
2017-10-02T04:50:43.338Z,99.99
2017-10-02T04:51:43.431Z,99.99
2017-10-02T04:52:43.354Z,99.99
2017-10-02T04:53:43.444Z,99.99
2017-10-02T04:54:43.374Z,99.99
2017-10-02T04:55:43.457Z,99.99
2017-10-02T04:56:43.394Z,99.99
2017-10-02T04:57:43.404Z,99.99
2017-10-02T04:58:43.477Z,99.99
2017-10-02T04:59:43.423Z,99.99
2017-10-02T05:00:43.492Z,99.99
2017-10-02T05:01:43.444Z,99.99
2017-10-02T05:02:43.506Z,99.99
2017-10-02T05:03:43.467Z,99.99
2017-10-02T05:04:43.519Z,99.99
2017-10-02T05:05:43.482Z,99.99
2017-10-02T05:06:43.532Z,99.99
2017-10-02T05:07:43.502Z,99.99
2017-10-02T05:08:43.527Z,99.99
2017-10-02T05:09:43.524Z,99.99
2017-10-02T05:10:43.659Z,99.99
2017-10-02T05:11:43.544Z,99.99
2017-10-02T05:12:44.597Z,99.99
2017-10-02T05:13:43.565Z,99.99
2017-10-02T05:14:43.573Z,99.99
2017-10-02T05:15:43.584Z,99.99
2017-10-02T05:16:43.593Z,99.99
2017-10-02T05:17:43.603Z,99.99
2017-10-02T05:18:43.717Z,99.99
2017-10-02T05:19:43.626Z,99.99
2017-10-02T05:20:43.728Z,99.99
2017-10-02T05:21:43.657Z,99.99
2017-10-02T05:22:43.743Z,99.99
2017-10-02T05:23:43.663Z,99.99
2017-10-02T05:24:43.757Z,99.99
2017-10-02T05:25:43.687Z,99.99
2017-10-02T05:26:43.705Z,99.99
2017-10-02T05:27:43.703Z,99.99
2017-10-02T05:28:43.786Z,99.99
2017-10-02T05:29:43.725Z,99.99
2017-10-02T05:30:43.799Z,99.99
2017-10-02T05:31:43.750Z,99.99
2017-10-02T05:32:43.813Z,99.99
2017-10-02T05:33:43.765Z,99.99
2017-10-02T05:34:43.774Z,99.99
2017-10-02T05:35:43.788Z,99.99
2017-10-02T05:36:43.796Z,99.99
2017-10-02T05:37:43.804Z,99.99
2017-10-02T05:38:43.817Z,99.99
2017-10-02T05:39:43.827Z,99.99
2017-10-02T05:40:43.968Z,99.99
2017-10-02T05:41:43.841Z,99.99
2017-10-02T05:42:43.981Z,99.99
2017-10-02T05:43:43.867Z,99.99
2017-10-02T05:44:43.994Z,99.99
2017-10-02T05:45:43.883Z,99.99
2017-10-02T05:46:44.008Z,99.99
2017-10-02T05:47:43.904Z,99.99
2017-10-02T05:48:44.021Z,99.99
2017-10-02T05:49:43.925Z,99.99
2017-10-02T05:50:44.033Z,99.99
2017-10-02T05:51:43.942Z,99.99
2017-10-02T05:52:44.047Z,99.99
2017-10-02T05:53:43.962Z,99.99
2017-10-02T05:54:44.060Z,99.99
2017-10-02T05:55:43.981Z,99.99
2017-10-02T05:56:43.997Z,99.99
2017-10-02T05:57:44.084Z,99.99
2017-10-02T05:58:44.014Z,99.99
2017-10-02T05:59:44.098Z,99.99
2017-10-02T06:00:44.038Z,99.99
2017-10-02T06:01:44.108Z,99.99
2017-10-02T06:02:44.053Z,99.99
2017-10-02T06:03:44.125Z,99.99
2017-10-02T06:04:44.073Z,99.99
2017-10-02T06:05:45.166Z,99.99
2017-10-02T06:06:44.095Z,99.99
2017-10-02T06:07:44.256Z,99.99
2017-10-02T06:08:44.116Z,99.99
2017-10-02T06:09:44.275Z,99.99
2017-10-02T06:10:44.129Z,99.99
2017-10-02T06:11:44.288Z,99.99
2017-10-02T06:12:44.152Z,99.99
2017-10-02T06:13:44.162Z,99.99
2017-10-02T06:14:44.177Z,99.99
2017-10-02T06:15:44.183Z,99.99
2017-10-02T06:16:44.193Z,99.99
2017-10-02T06:17:44.208Z,99.99
2017-10-02T06:18:44.214Z,99.99
2017-10-02T06:19:44.225Z,99.99
2017-10-02T06:20:44.233Z,99.99
2017-10-02T06:21:44.243Z,99.99
2017-10-02T06:22:44.252Z,99.99
2017-10-02T06:23:44.260Z,99.99
2017-10-02T06:24:44.272Z,99.99
2017-10-02T06:25:44.279Z,99.99
2017-10-02T06:26:44.294Z,99.99
2017-10-02T06:27:44.304Z,99.99
2017-10-02T06:28:45.420Z,99.99
2017-10-02T06:29:44.329Z,99.99
2017-10-02T06:30:44.332Z,99.99
2017-10-02T06:31:44.341Z,99.99
2017-10-02T06:32:44.351Z,99.99
2017-10-02T06:33:44.359Z,99.99
2017-10-02T06:34:44.368Z,99.99
2017-10-02T06:35:44.378Z,99.99
2017-10-02T06:36:44.392Z,99.99
2017-10-02T06:37:44.399Z,99.99
2017-10-02T06:38:44.409Z,99.99
2017-10-02T06:39:44.419Z,99.99
2017-10-02T06:40:44.427Z,99.99
2017-10-02T06:41:44.468Z,99.99
2017-10-02T06:42:44.450Z,99.99
2017-10-02T06:43:44.458Z,99.99
2017-10-02T06:44:44.608Z,99.99
2017-10-02T06:45:44.478Z,99.99
2017-10-02T06:46:44.492Z,99.99
2017-10-02T06:47:44.630Z,99.99
2017-10-02T06:48:44.513Z,99.99
2017-10-02T06:49:44.526Z,99.99
2017-10-02T06:50:44.528Z,99.99
2017-10-02T06:51:44.540Z,99.99
2017-10-02T06:52:44.553Z,99.99
2017-10-02T06:53:44.674Z,99.99
2017-10-02T06:54:44.572Z,99.99
2017-10-02T06:55:44.577Z,99.99
2017-10-02T06:56:44.589Z,99.99
2017-10-02T06:57:44.601Z,99.99
2017-10-02T06:58:44.607Z,99.99
2017-10-02T06:59:44.617Z,99.99
2017-10-02T07:00:44.627Z,99.99
2017-10-02T07:01:44.638Z,99.99
2017-10-02T07:02:44.646Z,99.99
2017-10-02T07:03:44.656Z,99.99
2017-10-02T07:04:44.665Z,99.99
2017-10-02T07:05:44.751Z,99.99
2017-10-02T07:06:44.687Z,99.99
2017-10-02T07:07:44.865Z,99.99
2017-10-02T07:08:44.706Z,99.99
2017-10-02T07:09:44.878Z,99.99
2017-10-02T07:10:44.722Z,99.99
2017-10-02T07:11:45.813Z,99.99
2017-10-02T07:12:45.605Z,99.99
2017-10-02T07:13:44.907Z,99.99
2017-10-02T07:14:44.767Z,99.99
2017-10-02T07:15:45.945Z,99.99
2017-10-02T07:16:44.783Z,99.99
2017-10-02T07:17:44.793Z,99.99
2017-10-02T07:18:45.982Z,99.99
2017-10-02T07:19:44.819Z,99.99
2017-10-02T07:20:44.956Z,99.99
2017-10-02T07:21:44.831Z,99.99
2017-10-02T07:22:44.969Z,99.99
2017-10-02T07:23:44.855Z,99.99
2017-10-02T07:24:44.863Z,99.99
2017-10-02T07:25:44.872Z,99.99
2017-10-02T07:26:44.884Z,99.99
2017-10-02T07:27:45.006Z,99.99
2017-10-02T07:28:44.905Z,99.99
2017-10-02T07:29:45.014Z,99.99
2017-10-02T07:30:44.932Z,99.99
2017-10-02T07:31:44.932Z,99.99
2017-10-02T07:32:45.036Z,99.99
2017-10-02T07:33:44.948Z,99.99
2017-10-02T07:34:45.057Z,99.99
2017-10-02T07:35:44.969Z,99.99
2017-10-02T07:36:45.167Z,99.99
2017-10-02T07:37:45.016Z,99.99
2017-10-02T07:38:45.183Z,99.99
2017-10-02T07:39:45.013Z,99.99
2017-10-02T07:40:45.195Z,99.99
2017-10-02T07:41:45.029Z,99.99
2017-10-02T07:42:45.209Z,99.99
2017-10-02T07:43:45.057Z,99.99
2017-10-02T07:44:45.231Z,99.99
2017-10-02T07:45:45.070Z,99.99
2017-10-02T07:46:46.259Z,99.99
2017-10-02T07:47:45.088Z,99.99
2017-10-02T07:48:45.250Z,99.99
2017-10-02T07:49:45.118Z,99.99
2017-10-02T07:50:45.266Z,99.99
2017-10-02T07:51:45.130Z,99.99
2017-10-02T07:52:46.299Z,99.99
2017-10-02T07:53:45.148Z,99.99
2017-10-02T07:54:46.314Z,99.99
2017-10-02T07:55:45.168Z,99.99
2017-10-02T07:56:45.301Z,99.99
2017-10-02T07:57:45.190Z,99.99
2017-10-02T07:58:45.195Z,99.99
2017-10-02T07:59:45.328Z,99.99
2017-10-02T08:00:45.213Z,99.99
2017-10-02T08:01:45.339Z,99.99
2017-10-02T08:02:45.237Z,99.99
2017-10-02T08:03:45.353Z,99.99
2017-10-02T08:04:45.257Z,99.99
2017-10-02T08:05:45.368Z,99.99
2017-10-02T08:06:45.273Z,99.99
2017-10-02T08:07:45.480Z,99.99
2017-10-02T08:08:45.303Z,99.99
2017-10-02T08:09:45.492Z,99.99
2017-10-02T08:10:45.317Z,99.99
2017-10-02T08:11:45.326Z,99.99
2017-10-02T08:12:45.337Z,99.99
2017-10-02T08:13:45.421Z,99.99
2017-10-02T08:14:45.355Z,99.99
2017-10-02T08:15:45.364Z,99.99
2017-10-02T08:16:45.436Z,99.99
2017-10-02T08:17:45.386Z,99.99
2017-10-02T08:18:45.397Z,99.99
2017-10-02T08:19:45.402Z,99.99
2017-10-02T08:20:45.464Z,99.99
2017-10-02T08:21:45.426Z,99.99
2017-10-02T08:22:45.479Z,99.99
2017-10-02T08:23:45.451Z,99.99
2017-10-02T08:24:45.598Z,99.99
2017-10-02T08:25:45.464Z,99.99
2017-10-02T08:26:45.477Z,99.99
2017-10-02T08:27:45.484Z,99.99
2017-10-02T08:28:45.520Z,99.99
2017-10-02T08:29:45.502Z,99.99
2017-10-02T08:30:45.532Z,99.99
2017-10-02T08:31:45.522Z,99.99
2017-10-02T08:32:46.570Z,99.99
2017-10-02T08:33:45.543Z,99.99
2017-10-02T08:34:45.663Z,99.99
2017-10-02T08:35:45.560Z,99.99
2017-10-02T08:36:45.680Z,99.99
2017-10-02T08:37:45.584Z,99.99
2017-10-02T08:38:46.612Z,99.99
2017-10-02T08:39:45.603Z,99.99
2017-10-02T08:40:45.703Z,99.99
2017-10-02T08:41:45.624Z,99.99
2017-10-02T08:42:45.719Z,99.99
2017-10-02T08:43:45.638Z,99.99
2017-10-02T08:44:45.729Z,99.99
2017-10-02T08:45:45.666Z,99.99
2017-10-02T08:46:45.749Z,99.99
2017-10-02T08:47:45.682Z,99.99
2017-10-02T08:48:45.687Z,99.99
2017-10-02T08:49:45.763Z,99.99
2017-10-02T08:50:45.710Z,99.99
2017-10-02T08:51:45.778Z,99.99
2017-10-02T08:52:45.729Z,99.99
2017-10-02T08:53:47.627Z,99.99
2017-10-02T08:54:45.750Z,99.99
2017-10-02T08:55:45.754Z,99.99
2017-10-02T08:56:45.774Z,99.99
2017-10-02T08:57:45.780Z,99.99
2017-10-02T08:58:45.838Z,99.99
2017-10-02T08:59:45.799Z,99.99
2017-10-02T09:00:45.852Z,99.99
2017-10-02T09:01:45.816Z,99.99
2017-10-02T09:02:45.826Z,99.99
2017-10-02T09:03:45.872Z,99.99
2017-10-02T09:04:45.846Z,99.99
2017-10-02T09:05:45.853Z,99.99
2017-10-02T09:06:45.973Z,99.99
2017-10-02T09:07:45.875Z,99.99
2017-10-02T09:08:45.988Z,99.99
2017-10-02T09:09:45.900Z,99.99
2017-10-02T09:10:46.002Z,99.99
2017-10-02T09:11:45.915Z,99.99
2017-10-02T09:12:46.017Z,99.99
2017-10-02T09:13:45.932Z,99.99
2017-10-02T09:14:46.029Z,99.99
2017-10-02T09:15:45.958Z,99.99
2017-10-02T09:16:46.043Z,99.99
2017-10-02T09:17:45.976Z,99.99
2017-10-02T09:18:45.986Z,99.99
2017-10-02T09:19:46.066Z,99.99
2017-10-02T09:20:46.007Z,99.99
2017-10-02T09:21:46.079Z,99.99
2017-10-02T09:22:46.025Z,99.99
2017-10-02T09:23:46.036Z,99.99
2017-10-02T09:24:46.099Z,99.99
2017-10-02T09:25:46.050Z,99.99
2017-10-02T09:26:46.072Z,99.99
2017-10-02T09:27:46.119Z,99.99
2017-10-02T09:28:46.083Z,99.99
2017-10-02T09:29:46.130Z,99.99
2017-10-02T09:30:46.105Z,99.99
2017-10-02T09:31:46.111Z,99.99
2017-10-02T09:32:46.124Z,99.99
2017-10-02T09:33:46.156Z,99.99
2017-10-02T09:34:46.142Z,99.99
2017-10-02T09:35:46.169Z,99.99
2017-10-02T09:36:46.158Z,99.99
2017-10-02T09:37:46.185Z,99.99
2017-10-02T09:38:46.179Z,99.99
2017-10-02T09:39:46.301Z,99.99
2017-10-02T09:40:46.201Z,99.99
2017-10-02T09:41:46.209Z,99.99
2017-10-02T09:42:46.321Z,99.99
2017-10-02T09:43:46.230Z,99.99
2017-10-02T09:44:46.333Z,99.99
2017-10-02T09:45:46.251Z,99.99
2017-10-02T09:46:46.347Z,99.99
2017-10-02T09:47:46.270Z,99.99
2017-10-02T09:48:46.363Z,99.99
2017-10-02T09:49:46.293Z,99.99
2017-10-02T09:50:46.375Z,99.99
2017-10-02T09:51:46.312Z,99.99
2017-10-02T09:52:46.388Z,99.99
2017-10-02T09:53:46.330Z,99.99
2017-10-02T09:54:46.341Z,99.99
2017-10-02T09:55:46.349Z,99.99
2017-10-02T09:56:46.360Z,99.99
2017-10-02T09:57:46.368Z,99.99
2017-10-02T09:58:46.379Z,99.99
2017-10-02T09:59:46.396Z,99.99
2017-10-02T10:00:46.446Z,99.99
2017-10-02T10:01:46.410Z,99.99
2017-10-02T10:02:46.459Z,99.99
2017-10-02T10:03:46.430Z,99.99
2017-10-02T10:04:46.474Z,99.99
2017-10-02T10:05:46.446Z,99.99
2017-10-02T10:06:46.486Z,99.99
2017-10-02T10:07:46.470Z,99.99
2017-10-02T10:08:46.498Z,99.99
2017-10-02T10:09:46.487Z,99.99
2017-10-02T10:10:46.501Z,99.99
2017-10-02T10:11:46.510Z,99.99
2017-10-02T10:12:46.629Z,99.99
2017-10-02T10:13:46.529Z,99.99
2017-10-02T10:14:46.639Z,99.99
2017-10-02T10:15:46.556Z,99.99
2017-10-02T10:16:46.560Z,99.99
2017-10-02T10:17:46.569Z,99.99
2017-10-02T10:18:46.668Z,99.99
2017-10-02T10:19:46.595Z,99.99
2017-10-02T10:20:46.682Z,99.99
2017-10-02T10:21:46.615Z,99.99
2017-10-02T10:22:46.694Z,99.99
2017-10-02T10:23:46.638Z,99.99
2017-10-02T10:24:46.641Z,99.99
2017-10-02T10:25:46.715Z,99.99
2017-10-02T10:26:46.661Z,99.99
2017-10-02T10:27:46.726Z,99.99
2017-10-02T10:28:46.681Z,99.99
2017-10-02T10:29:46.743Z,99.99
2017-10-02T10:30:46.700Z,99.99
2017-10-02T10:31:46.755Z,99.99
2017-10-02T10:32:46.718Z,99.99
2017-10-02T10:33:46.770Z,99.99
2017-10-02T10:34:46.739Z,99.82
2017-10-02T10:35:46.784Z,99.82
2017-10-02T10:36:46.762Z,99.99
2017-10-02T10:37:46.795Z,99.68
2017-10-02T10:38:46.781Z,99.01
2017-10-02T10:39:46.810Z,99.10
2017-10-02T10:40:46.809Z,99.01
2017-10-02T10:41:46.925Z,98.43
2017-10-02T10:42:46.823Z,97.66
2017-10-02T10:43:46.939Z,97.57
2017-10-02T10:44:46.851Z,97.28
2017-10-02T10:45:46.954Z,97.24
2017-10-02T10:46:46.867Z,97.33
2017-10-02T10:47:46.968Z,97.42
2017-10-02T10:48:46.887Z,96.80
2017-10-02T10:49:46.983Z,96.70
2017-10-02T10:50:46.915Z,96.13
2017-10-02T10:51:46.994Z,96.37
2017-10-02T10:52:46.929Z,95.36
2017-10-02T10:53:47.007Z,94.73
2017-10-02T10:54:46.943Z,94.64
2017-10-02T10:55:46.969Z,94.83
2017-10-02T10:56:46.966Z,94.88
2017-10-02T10:57:47.035Z,94.30
2017-10-02T10:58:46.988Z,93.82
2017-10-02T10:59:47.053Z,93.63
2017-10-02T11:00:47.011Z,94.01
2017-10-02T11:01:47.062Z,94.01
2017-10-02T11:02:47.031Z,93.58
2017-10-02T11:03:47.075Z,93.10
2017-10-02T11:04:47.051Z,93.44
2017-10-02T11:05:47.063Z,93.73
2017-10-02T11:06:47.098Z,94.11
2017-10-02T11:07:47.082Z,93.82
2017-10-02T11:08:47.111Z,94.59
2017-10-02T11:09:47.106Z,94.98
2017-10-02T11:10:47.112Z,93.73
2017-10-02T11:11:47.127Z,93.77
2017-10-02T11:12:47.137Z,93.68
2017-10-02T11:13:47.146Z,93.73
2017-10-02T11:14:47.156Z,93.82
2017-10-02T11:15:47.184Z,93.91
2017-10-02T11:16:47.183Z,93.53
2017-10-02T11:17:47.269Z,93.15
2017-10-02T11:18:47.200Z,93.05
2017-10-02T11:19:47.209Z,92.86
2017-10-02T11:20:47.217Z,91.52
2017-10-02T11:21:47.231Z,91.42
2017-10-02T11:22:47.241Z,91.22
2017-10-02T11:23:47.257Z,91.32
2017-10-02T11:24:47.264Z,91.52
2017-10-02T11:25:47.270Z,91.42
2017-10-02T11:26:47.289Z,91.71
2017-10-02T11:27:47.298Z,91.03
2017-10-02T11:28:47.305Z,90.55
2017-10-02T11:29:47.311Z,89.98
2017-10-02T11:30:47.323Z,89.88
2017-10-02T11:31:47.337Z,89.40
2017-10-02T11:32:47.349Z,89.01
2017-10-02T11:33:47.399Z,89.30
2017-10-02T11:34:47.369Z,89.78
2017-10-02T11:35:47.379Z,89.30
2017-10-02T11:36:47.394Z,89.50
2017-10-02T11:37:47.403Z,89.11
2017-10-02T11:38:47.416Z,89.21
2017-10-02T11:39:47.428Z,88.67
2017-10-02T11:40:47.436Z,88.00
2017-10-02T11:41:47.444Z,88.19
2017-10-02T11:42:47.458Z,88.00
2017-10-02T11:43:47.468Z,87.52
2017-10-02T11:44:47.480Z,86.94
2017-10-02T11:45:47.487Z,86.65
2017-10-02T11:46:47.578Z,86.65
2017-10-02T11:47:47.511Z,86.75
2017-10-02T11:48:47.585Z,87.04
2017-10-02T11:49:47.536Z,86.65
2017-10-02T11:50:47.605Z,86.85
2017-10-02T11:51:47.558Z,86.56
2017-10-02T11:52:47.613Z,86.08
2017-10-02T11:53:47.578Z,86.12
2017-10-02T11:54:47.591Z,86.60
2017-10-02T11:55:47.661Z,85.44
2017-10-02T11:56:47.614Z,85.74
2017-10-02T11:57:47.648Z,84.97
2017-10-02T11:58:47.636Z,83.62
2017-10-02T11:59:47.647Z,83.72
2017-10-02T12:00:47.658Z,83.52
2017-10-02T12:01:47.778Z,84.10
2017-10-02T12:02:47.681Z,83.42
2017-10-02T12:03:47.792Z,82.85
2017-10-02T12:04:47.701Z,83.23
2017-10-02T12:05:47.803Z,82.94
2017-10-02T12:06:47.732Z,82.81
2017-10-02T12:07:47.819Z,82.81
2017-10-02T12:08:47.748Z,82.52
2017-10-02T12:09:47.835Z,83.39
2017-10-02T12:10:47.775Z,83.29
2017-10-02T12:11:47.846Z,82.96
2017-10-02T12:12:47.791Z,82.96
2017-10-02T12:13:47.860Z,83.15
2017-10-02T12:14:47.816Z,83.40
2017-10-02T12:15:47.868Z,84.45
2017-10-02T12:16:47.838Z,84.55
2017-10-02T12:17:47.850Z,84.84
2017-10-02T12:18:47.946Z,85.13
2017-10-02T12:19:47.872Z,84.84
2017-10-02T12:20:47.959Z,84.51
2017-10-02T12:25:51.864Z,83.20
2017-10-02T12:26:51.783Z,83.20
2017-10-02T12:28:45.136Z,83.11
2017-10-02T12:29:45.134Z,82.92
2017-10-02T12:31:39.501Z,80.71
2017-10-02T12:32:38.500Z,80.80
2017-10-02T12:33:38.558Z,80.51
2017-10-02T12:34:38.222Z,80.42
2017-10-02T12:35:38.233Z,80.90
2017-10-02T12:36:38.444Z,80.80
2017-10-02T12:37:38.551Z,80.71
2017-10-02T12:38:38.275Z,80.61
2017-10-02T12:39:38.282Z,79.46
2017-10-02T12:40:38.287Z,79.50
2017-10-02T12:41:38.297Z,79.40
2017-10-02T12:42:38.315Z,78.53
2017-10-02T12:43:38.324Z,77.48
2017-10-02T12:44:38.340Z,77.48
2017-10-02T12:45:38.348Z,76.81
2017-10-02T12:46:38.363Z,76.81
2017-10-02T12:47:38.380Z,76.61
2017-10-02T12:48:38.382Z,76.61
2017-10-02T12:49:38.392Z,76.90
2017-10-02T12:50:38.407Z,76.61
2017-10-02T12:51:38.424Z,77.51
2017-10-02T12:52:38.443Z,77.51
2017-10-02T12:53:38.465Z,77.42
2017-10-02T12:54:38.452Z,77.61
2017-10-02T12:55:38.605Z,77.58
2017-10-02T12:56:38.474Z,76.42
2017-10-02T12:57:38.620Z,76.23
2017-10-02T12:58:38.501Z,76.23